Time;durP1;ratioP1;P1;durP2;ratioP2;P2;SDS_P1;SDS_P2;PMS_P1;PMS_P2;Temp;Humidity;BMP_temperature;BMP_pressure;BME280_temperature;BME280_humidity;BME280_pressure;Samples;Min_cycle;Max_cycle;Signal;HPM_P1;HPM_P2
2024/01/17 00:01:30;;;;;;;8.77;3.70;;;-2.70;99.90;-3.20;99463.00;;;;4955926;28;88035;-67
2024/01/17 00:03:55;;;;;;;6.27;2.83;;;-2.70;99.90;-3.20;99450.00;;;;4954180;28;109586;-67
2024/01/17 00:06:21;;;;;;;7.53;3.27;;;-2.80;99.90;-3.30;99449.00;;;;4959285;28;88915;-66
2024/01/17 00:08:47;;;;;;;7.60;4.30;;;-2.80;99.90;-3.30;99443.00;;;;4954280;28;117027;-66
2024/01/17 00:11:13;;;;;;;6.30;3.63;;;-2.80;99.90;-3.30;99440.00;;;;4955596;28;88868;-66
2024/01/17 00:13:39;;;;;;;5.90;4.30;;;-2.80;99.90;-3.40;99453.00;;;;4956111;28;87852;-67
2024/01/17 00:16:05;;;;;;;5.50;4.27;;;-2.80;99.90;-3.40;99439.00;;;;4958496;28;88546;-66
2024/01/17 00:18:31;;;;;;;6.10;4.20;;;-2.90;99.90;-3.50;99446.00;;;;4957126;28;88142;-67
2024/01/17 00:20:56;;;;;;;5.37;3.50;;;-2.90;99.90;-3.50;99443.00;;;;4955078;28;108748;-67
2024/01/17 00:23:22;;;;;;;6.73;4.47;;;-3.10;99.90;-3.60;99449.00;;;;4955345;28;108571;-67
2024/01/17 00:25:47;;;;;;;10.17;4.53;;;-3.10;99.90;-3.60;99446.00;;;;4957969;28;117124;-67
2024/01/17 00:28:14;;;;;;;7.63;3.67;;;-3.00;99.90;-3.70;99444.00;;;;4954189;28;117340;-66
2024/01/17 00:30:39;;;;;;;6.53;3.97;;;-3.10;99.90;-3.70;99446.00;;;;4956299;28;88434;-66
2024/01/17 00:33:05;;;;;;;5.00;3.43;;;-3.20;99.90;-3.80;99437.00;;;;4956572;28;109017;-65
2024/01/17 00:35:31;;;;;;;6.50;3.47;;;-3.20;99.90;-3.80;99449.00;;;;4955975;28;118754;-66
2024/01/17 00:37:56;;;;;;;5.27;2.87;;;-3.20;99.90;-3.80;99442.00;;;;4954421;28;88558;-65
2024/01/17 00:40:22;;;;;;;5.67;2.93;;;-3.30;99.90;-3.80;99443.00;;;;4953624;28;109797;-65
2024/01/17 00:42:48;;;;;;;4.87;3.03;;;-3.40;99.90;-3.80;99439.00;;;;4954223;28;87912;-65
2024/01/17 00:45:14;;;;;;;7.03;3.00;;;-3.30;99.90;-3.80;99442.00;;;;4956229;28;118111;-64
2024/01/17 00:47:40;;;;;;;6.97;3.57;;;-3.40;99.90;-3.80;99436.00;;;;4954277;28;88216;-66
2024/01/17 00:50:06;;;;;;;3.57;3.17;;;-3.30;99.90;-3.80;99423.00;;;;4949987;28;111297;-66
2024/01/17 00:52:32;;;;;;;6.13;3.37;;;-3.30;99.90;-3.80;99424.00;;;;4953183;28;87043;-66
2024/01/17 00:54:58;;;;;;;4.37;3.03;;;-3.20;99.90;-3.80;99430.00;;;;4954356;28;116273;-66
2024/01/17 00:57:24;;;;;;;4.13;2.47;;;-3.30;99.90;-3.80;99418.00;;;;4956745;28;88663;-66
2024/01/17 00:59:49;;;;;;;4.40;3.50;;;-3.30;99.90;-3.80;99415.00;;;;4957239;28;88945;-66
2024/01/17 01:02:15;;;;;;;2.73;2.47;;;-3.30;99.90;-3.80;99412.00;;;;4953922;28;107521;-65
2024/01/17 01:04:40;;;;;;;7.27;3.03;;;-3.20;99.90;-3.80;99403.00;;;;4952263;28;117744;-65
2024/01/17 01:07:06;;;;;;;4.27;2.90;;;-3.20;99.90;-3.80;99407.00;;;;4952058;28;117473;-65
2024/01/17 01:09:32;;;;;;;3.70;2.37;;;-3.20;99.90;-3.80;99401.00;;;;4953980;28;110911;-64
2024/01/17 01:11:57;;;;;;;6.67;3.50;;;-3.30;99.90;-3.70;99399.00;;;;4955060;28;87993;-65
2024/01/17 01:14:23;;;;;;;4.00;2.93;;;-3.20;99.90;-3.70;99407.00;;;;4951010;28;117362;-64
2024/01/17 01:16:49;;;;;;;3.33;2.50;;;-3.30;99.90;-3.70;99398.00;;;;4987358;28;105583;-64
2024/01/17 01:19:15;;;;;;;4.67;2.40;;;-3.20;99.90;-3.70;99393.00;;;;4954213;28;98411;-64
2024/01/17 01:21:42;;;;;;;6.93;2.63;;;-3.20;99.90;-3.70;99390.00;;;;4954731;28;87870;-64
2024/01/17 01:24:08;;;;;;;4.77;2.83;;;-3.20;99.90;-3.70;99385.00;;;;4955752;28;89182;-65
2024/01/17 01:26:35;;;;;;;3.27;2.27;;;-3.10;99.90;-3.70;99402.00;;;;4951552;28;88802;-65
2024/01/17 01:29:01;;;;;;;3.00;2.47;;;-3.20;99.90;-3.70;99384.00;;;;4953974;28;87579;-64
2024/01/17 01:31:27;;;;;;;2.53;2.13;;;-3.10;99.90;-3.70;99384.00;;;;4959804;28;95260;-65
2024/01/17 01:33:52;;;;;;;4.23;3.10;;;-3.20;99.90;-3.70;99393.00;;;;4955001;28;117197;-64
2024/01/17 01:36:19;;;;;;;3.43;2.53;;;-3.10;99.90;-3.70;99397.00;;;;4955504;28;117748;-65
2024/01/17 01:38:44;;;;;;;4.20;2.80;;;-3.10;99.90;-3.70;99398.00;;;;4957190;28;88132;-65
2024/01/17 01:41:10;;;;;;;8.23;3.27;;;-3.10;99.90;-3.70;99388.00;;;;4954279;28;108633;-64
2024/01/17 01:43:35;;;;;;;4.50;2.23;;;-3.10;99.90;-3.70;99387.00;;;;4954533;28;118232;-65
2024/01/17 01:46:04;;;;;;;6.43;2.57;;;-3.30;99.90;-3.70;99390.00;;;;4955087;28;116956;-65
2024/01/17 01:48:31;;;;;;;7.23;2.47;;;-3.30;99.90;-3.70;99390.00;;;;4952359;28;89093;-66
2024/01/17 01:50:58;;;;;;;6.63;2.50;;;-3.20;99.90;-3.70;99383.00;;;;4953174;28;87875;-63
2024/01/17 01:53:25;;;;;;;4.80;2.80;;;-3.20;99.90;-3.70;99384.00;;;;4954581;28;117864;-64
2024/01/17 01:55:53;;;;;;;5.07;2.63;;;-3.30;99.90;-3.70;99373.00;;;;4954870;28;88146;-64
2024/01/17 01:58:24;;;;;;;5.87;2.83;;;-3.20;99.90;-3.70;99377.00;;;;4956851;28;109986;-63
2024/01/17 02:00:52;;;;;;;3.80;2.50;;;-3.00;99.90;-3.80;99374.00;;;;4954236;28;101799;-64
2024/01/17 02:03:18;;;;;;;2.67;2.13;;;-3.30;99.90;-3.80;99370.00;;;;4948766;28;105931;-64
2024/01/17 02:05:45;;;;;;;6.40;3.07;;;-3.20;99.90;-3.80;99365.00;;;;4956776;28;99727;-64
2024/01/17 02:08:12;;;;;;;3.67;2.57;;;-3.20;99.90;-3.80;99353.00;;;;4951460;28;87722;-63
2024/01/17 02:10:39;;;;;;;4.27;2.77;;;-3.30;99.90;-3.80;99368.00;;;;4957358;28;87899;-64
2024/01/17 02:13:05;;;;;;;3.40;2.80;;;-3.30;99.90;-3.80;99360.00;;;;4951266;28;119078;-64
2024/01/17 02:15:31;;;;;;;3.23;2.23;;;-3.30;99.90;-3.90;99356.00;;;;4964537;28;89420;-63
2024/01/17 02:17:57;;;;;;;5.23;2.73;;;-3.30;99.90;-3.90;99350.00;;;;4954788;28;87843;-63
2024/01/17 02:20:23;;;;;;;5.87;3.07;;;-3.30;99.90;-3.90;99352.00;;;;4953173;28;111451;-63
2024/01/17 02:22:49;;;;;;;5.87;3.50;;;-3.40;99.90;-3.90;99348.00;;;;4955839;28;115597;-63
2024/01/17 02:25:14;;;;;;;4.50;2.80;;;-3.40;99.90;-4.00;99333.00;;;;4953079;28;117165;-64
2024/01/17 02:27:40;;;;;;;2.93;2.37;;;-3.40;99.90;-4.00;99353.00;;;;4955962;28;110214;-63
2024/01/17 02:30:07;;;;;;;4.90;2.77;;;-3.40;99.90;-4.00;99328.00;;;;4955445;28;88350;-64
2024/01/17 02:32:34;;;;;;;4.43;2.90;;;-3.00;99.90;-4.00;99327.00;;;;4952742;28;88055;-63
2024/01/17 02:35:00;;;;;;;4.93;3.10;;;-3.40;99.90;-4.00;99324.00;;;;4955496;28;92457;-63
2024/01/17 02:37:26;;;;;;;6.27;3.67;;;-3.50;99.90;-4.00;99317.00;;;;4955264;28;101666;-63
2024/01/17 02:39:51;;;;;;;5.30;3.23;;;-3.60;99.90;-4.00;99326.00;;;;4954442;28;108440;-65
2024/01/17 02:42:17;;;;;;;3.17;2.53;;;-3.50;99.90;-4.00;99315.00;;;;4957435;28;107109;-63
2024/01/17 02:44:43;;;;;;;4.47;3.10;;;-3.60;99.90;-4.10;99319.00;;;;4954596;28;117842;-64
2024/01/17 02:47:08;;;;;;;4.57;3.03;;;-2.70;99.90;-4.10;99318.00;;;;4954650;28;109851;-64
2024/01/17 02:49:34;;;;;;;7.73;3.60;;;-3.60;99.90;-4.10;99315.00;;;;4954975;28;108378;-63
2024/01/17 02:52:00;;;;;;;7.10;3.23;;;-3.60;99.90;-4.10;99297.00;;;;4952766;28;88875;-64
2024/01/17 02:54:26;;;;;;;2.83;2.47;;;-3.80;99.90;-4.20;99306.00;;;;4953791;28;88180;-63
2024/01/17 02:56:52;;;;;;;5.83;3.33;;;-3.60;99.90;-4.20;99297.00;;;;4956711;28;88363;-63
2024/01/17 02:59:18;;;;;;;8.17;3.20;;;-3.60;99.90;-4.20;99288.00;;;;4952304;28;107468;-62
2024/01/17 03:01:46;;;;;;;4.20;2.87;;;-3.70;99.90;-4.30;99290.00;;;;4950044;28;118772;-63
2024/01/17 03:04:11;;;;;;;4.30;3.07;;;-3.80;99.90;-4.40;99289.00;;;;4951819;28;89433;-62
2024/01/17 03:06:37;;;;;;;6.27;2.70;;;-4.00;99.90;-4.40;99289.00;;;;4948082;28;109987;-63
2024/01/17 03:09:04;;;;;;;5.37;2.93;;;-3.90;99.90;-4.40;99280.00;;;;4954027;28;109003;-63
2024/01/17 03:11:30;;;;;;;3.90;3.13;;;-3.90;99.90;-4.50;99274.00;;;;4951765;28;92151;-63
2024/01/17 03:13:56;;;;;;;5.10;3.50;;;-3.90;99.90;-4.50;99262.00;;;;4956943;28;90069;-63
2024/01/17 03:16:21;;;;;;;5.53;3.03;;;-3.90;99.90;-4.50;99270.00;;;;4952369;28;97181;-63
2024/01/17 03:18:47;;;;;;;6.00;3.17;;;-4.60;99.90;-4.60;99258.00;;;;4957963;28;91783;-63
2024/01/17 03:21:13;;;;;;;5.30;3.30;;;-4.00;99.90;-4.60;99260.00;;;;4955995;28;113220;-62
2024/01/17 03:23:39;;;;;;;5.07;3.93;;;-4.00;99.90;-4.60;99255.00;;;;4954068;28;88334;-62
2024/01/17 03:26:05;;;;;;;7.20;3.37;;;-4.00;99.90;-4.60;99257.00;;;;4953388;28;88732;-62
2024/01/17 03:28:31;;;;;;;13.30;4.03;;;-4.00;99.90;-4.60;99238.00;;;;4955544;28;99644;-62
2024/01/17 03:30:56;;;;;;;5.97;3.53;;;-4.00;99.90;-4.70;99239.00;;;;4954042;28;116101;-62
2024/01/17 03:33:22;;;;;;;6.77;3.97;;;-4.10;99.90;-4.60;99256.00;;;;4953547;28;117298;-61
2024/01/17 03:35:48;;;;;;;6.57;3.93;;;-4.10;99.90;-4.70;99234.00;;;;4960219;28;110142;-63
2024/01/17 03:38:14;;;;;;;8.80;4.37;;;-4.20;99.90;-4.70;99237.00;;;;4956416;28;87812;-62
2024/01/17 03:40:40;;;;;;;7.87;4.20;;;-4.20;99.90;-4.70;99238.00;;;;4970168;28;96579;-62
2024/01/17 03:43:05;;;;;;;5.10;3.53;;;-4.20;99.90;-4.70;99231.00;;;;4958458;28;88590;-62
2024/01/17 03:45:31;;;;;;;10.83;4.83;;;-4.20;99.90;-4.70;99226.00;;;;4957373;28;87721;-62
2024/01/17 03:47:57;;;;;;;7.20;4.20;;;-4.20;99.90;-4.80;99216.00;;;;4956537;28;108914;-63
2024/01/17 03:50:24;;;;;;;9.73;5.00;;;-4.20;99.90;-4.80;99218.00;;;;4956238;28;91752;-63
2024/01/17 03:52:49;;;;;;;6.67;4.33;;;-4.30;99.90;-4.80;99216.00;;;;4963552;28;89630;-63
2024/01/17 03:55:15;;;;;;;7.07;4.47;;;-4.10;99.90;-4.80;99208.00;;;;4953823;28;109024;-62
2024/01/17 03:57:41;;;;;;;9.20;5.07;;;-4.20;99.90;-4.80;99209.00;;;;4956495;28;87888;-63
2024/01/17 04:00:08;;;;;;;8.87;5.60;;;-4.30;99.90;-4.90;99202.00;;;;4953401;28;90386;-62
2024/01/17 04:02:35;;;;;;;5.93;4.67;;;-4.30;99.90;-4.90;99204.00;;;;4955907;28;88737;-62
2024/01/17 04:05:01;;;;;;;8.10;5.50;;;-4.20;99.90;-4.90;99204.00;;;;4955529;28;110037;-62
2024/01/17 04:07:27;;;;;;;7.40;4.33;;;-4.30;99.90;-4.90;99195.00;;;;4960042;28;109062;-63
2024/01/17 04:09:52;;;;;;;13.67;5.43;;;-4.30;99.90;-4.90;99207.00;;;;4954355;28;96259;-62
2024/01/17 04:12:20;;;;;;;10.10;5.40;;;-4.40;99.90;-4.90;99192.00;;;;4950185;28;115886;-62
2024/01/17 04:14:46;;;;;;;9.23;5.17;;;-4.40;99.90;-5.00;99187.00;;;;4958579;28;88697;-63
2024/01/17 04:17:12;;;;;;;8.60;5.50;;;-4.50;99.90;-5.00;99181.00;;;;4955335;28;96912;-63
2024/01/17 04:19:37;;;;;;;10.50;4.93;;;-4.40;99.90;-5.00;99189.00;;;;4956708;28;89202;-63
2024/01/17 04:22:03;;;;;;;7.20;5.03;;;-4.40;99.90;-5.00;99177.00;;;;4957018;28;115287;-61
2024/01/17 04:24:29;;;;;;;13.40;5.93;;;-4.30;99.90;-5.00;99174.00;;;;4955497;28;87518;-63
2024/01/17 04:26:56;;;;;;;8.93;5.00;;;-4.40;99.90;-5.00;99165.00;;;;4955378;28;87666;-63
2024/01/17 04:29:22;;;;;;;8.87;5.40;;;-4.50;99.90;-5.00;99162.00;;;;4956058;28;101726;-63
2024/01/17 04:31:48;;;;;;;8.53;5.03;;;-4.50;99.90;-5.00;99155.00;;;;4954173;28;87894;-64
2024/01/17 04:34:14;;;;;;;5.07;4.47;;;-4.50;99.90;-5.10;99171.00;;;;4956184;28;87775;-63
2024/01/17 04:36:40;;;;;;;10.80;6.27;;;-4.50;99.90;-5.10;99159.00;;;;4955992;28;89300;-62
2024/01/17 04:39:05;;;;;;;9.30;5.50;;;-4.60;99.90;-5.10;99151.00;;;;4955377;28;91795;-63
2024/01/17 04:41:31;;;;;;;10.90;5.77;;;-4.60;99.90;-5.10;99149.00;;;;4946599;28;117723;-63
2024/01/17 04:43:57;;;;;;;11.63;6.33;;;-4.60;99.90;-5.20;99144.00;;;;4957867;28;109737;-63
2024/01/17 04:46:23;;;;;;;15.90;6.10;;;-4.50;99.90;-5.10;99143.00;;;;4957150;28;87715;-63
2024/01/17 04:48:49;;;;;;;11.17;5.67;;;-4.40;99.90;-5.20;99136.00;;;;4930049;28;116367;-63
2024/01/17 04:51:15;;;;;;;8.17;5.33;;;-4.50;99.90;-5.20;99121.00;;;;4941834;28;87967;-63
2024/01/17 04:53:41;;;;;;;8.13;6.20;;;-4.70;99.90;-5.20;99120.00;;;;4940829;28;87991;-64
2024/01/17 04:56:13;;;;;;;7.13;5.03;;;-4.60;99.90;-5.20;99112.00;;;;4936501;28;87198;-63
2024/01/17 04:58:38;;;;;;;10.13;6.47;;;-4.60;99.90;-5.20;99108.00;;;;4933961;28;88125;-64
2024/01/17 05:01:11;;;;;;;10.23;6.10;;;-4.50;99.90;-5.20;99100.00;;;;4933423;28;97253;-64
2024/01/17 05:03:37;;;;;;;9.67;5.60;;;-4.60;99.90;-5.20;99113.00;;;;4936547;28;88725;-64
2024/01/17 05:06:05;;;;;;;10.70;7.27;;;-4.60;99.90;-5.10;99114.00;;;;4928635;28;88825;-63
2024/01/17 05:08:30;;;;;;;9.40;5.77;;;-4.60;99.90;-5.10;99105.00;;;;4932401;28;117207;-63
2024/01/17 05:10:56;;;;;;;12.97;5.07;;;-4.50;99.90;-5.10;99102.00;;;;4931662;28;117413;-63
2024/01/17 05:13:22;;;;;;;11.40;6.07;;;-4.50;99.90;-5.10;99091.00;;;;4933627;28;87890;-62
2024/01/17 05:15:48;;;;;;;5.43;4.57;;;-4.60;99.90;-5.10;99105.00;;;;4936255;28;88161;-63
2024/01/17 05:18:14;;;;;;;10.00;6.23;;;-4.50;99.90;-5.10;99097.00;;;;4928545;28;118712;-63
2024/01/17 05:20:40;;;;;;;12.17;5.27;;;-4.70;99.90;-5.10;99088.00;;;;4946744;28;88873;-62
2024/01/17 05:23:06;;;;;;;13.17;6.17;;;-4.60;99.90;-5.00;99088.00;;;;4937651;28;87874;-64
2024/01/17 05:25:32;;;;;;;11.97;5.97;;;-4.50;99.90;-5.00;99085.00;;;;4934248;28;88230;-63
2024/01/17 05:27:58;;;;;;;10.03;6.23;;;-4.60;99.90;-5.00;99080.00;;;;4931102;28;89854;-63
2024/01/17 05:30:25;;;;;;;10.37;6.50;;;-4.60;99.90;-5.00;99071.00;;;;4934531;28;117112;-63
2024/01/17 05:32:52;;;;;;;9.57;5.80;;;-4.50;99.90;-5.00;99071.00;;;;4933387;28;95314;-63
2024/01/17 05:35:19;;;;;;;15.77;6.73;;;-4.40;99.90;-5.00;99058.00;;;;4930525;28;101765;-62
2024/01/17 05:37:45;;;;;;;12.63;7.33;;;-4.30;99.90;-5.00;99063.00;;;;4931715;28;89603;-62
2024/01/17 05:40:15;;;;;;;12.43;6.37;;;-4.50;99.90;-5.00;99054.00;;;;4935096;28;88273;-63
2024/01/17 05:42:44;;;;;;;8.70;6.27;;;-4.40;99.90;-5.00;99040.00;;;;4931596;28;87735;-63
2024/01/17 05:45:09;;;;;;;11.80;6.67;;;-4.40;99.90;-4.90;99044.00;;;;4932023;28;87562;-62
2024/01/17 05:47:36;;;;;;;11.13;6.47;;;-4.40;99.90;-4.90;99037.00;;;;4932990;28;88492;-63
2024/01/17 05:50:08;;;;;;;9.33;6.43;;;-4.40;99.90;-4.90;99015.00;;;;4927896;28;87975;-63
2024/01/17 05:52:42;;;;;;;9.97;5.90;;;-4.30;99.90;-4.90;99019.00;;;;4931197;28;88855;-65
2024/01/17 05:55:10;;;;;;;12.53;7.17;;;-4.30;99.90;-4.90;99016.00;;;;4929723;28;88164;-63
2024/01/17 05:57:36;;;;;;;11.40;6.30;;;-4.30;99.90;-4.80;99033.00;;;;4928862;28;88951;-63
2024/01/17 06:00:04;;;;;;;10.10;5.53;;;-4.30;99.90;-4.80;99020.00;;;;4928260;28;88537;-62
2024/01/17 06:02:29;;;;;;;11.13;8.00;;;-4.30;99.90;-4.80;99021.00;;;;4933518;28;87710;-63
2024/01/17 06:04:55;;;;;;;12.10;8.17;;;-3.60;99.90;-4.70;99023.00;;;;4929069;28;88346;-63
2024/01/17 06:07:21;;;;;;;16.50;6.97;;;-4.10;99.90;-4.70;99018.00;;;;4931619;28;117172;-62
2024/01/17 06:09:48;;;;;;;11.73;6.70;;;-4.20;99.90;-4.70;99008.00;;;;4930411;28;95110;-62
2024/01/17 06:12:13;;;;;;;10.40;6.87;;;-4.20;99.90;-4.70;98997.00;;;;4929022;28;87770;-63
2024/01/17 06:14:40;;;;;;;8.30;5.37;;;-4.20;99.90;-4.70;98993.00;;;;4929440;28;101089;-63
2024/01/17 06:17:06;;;;;;;8.50;5.27;;;-4.10;99.90;-4.70;98992.00;;;;4928101;28;89063;-62
2024/01/17 06:19:32;;;;;;;12.13;6.53;;;-4.10;99.90;-4.70;98996.00;;;;4932811;28;89125;-62
2024/01/17 06:21:58;;;;;;;12.67;6.47;;;-4.20;99.90;-4.70;98996.00;;;;4935729;28;87999;-63
2024/01/17 06:24:24;;;;;;;8.37;5.10;;;-4.20;99.90;-4.80;98980.00;;;;4936009;28;87897;-66
2024/01/17 06:26:49;;;;;;;14.03;6.90;;;-4.20;99.90;-4.80;98982.00;;;;4933435;28;108826;-60
2024/01/17 06:29:15;;;;;;;12.00;6.20;;;-4.30;99.90;-4.80;98981.00;;;;4934360;28;116341;-62
2024/01/17 06:31:40;;;;;;;9.17;5.73;;;-4.20;99.90;-4.80;98982.00;;;;4935064;28;96472;-63
2024/01/17 06:34:06;;;;;;;9.30;5.63;;;-4.30;99.90;-4.90;98967.00;;;;4930998;28;94491;-63
2024/01/17 06:36:32;;;;;;;8.90;5.13;;;-4.30;99.90;-4.90;98965.00;;;;4930686;28;115262;-61
2024/01/17 06:38:58;;;;;;;8.20;6.17;;;-4.20;99.90;-4.90;98960.00;;;;4934736;28;88739;-63
2024/01/17 06:41:24;;;;;;;13.67;8.17;;;-4.30;99.90;-5.00;98955.00;;;;4929731;28;92830;-63
2024/01/17 06:43:50;;;;;;;9.90;5.70;;;-4.40;99.90;-5.00;98954.00;;;;4931993;28;88095;-64
2024/01/17 06:46:15;;;;;;;10.20;6.70;;;-4.40;99.90;-5.00;98952.00;;;;4936332;28;88843;-63
2024/01/17 06:48:41;;;;;;;12.37;7.13;;;-4.40;99.90;-5.00;98945.00;;;;4932848;28;117782;-64
2024/01/17 06:51:07;;;;;;;10.13;5.97;;;-4.50;99.90;-5.00;98940.00;;;;4932558;28;88308;-64
2024/01/17 06:53:35;;;;;;;15.30;7.90;;;-4.40;99.90;-5.00;98943.00;;;;4938177;28;92661;-64
2024/01/17 06:56:01;;;;;;;13.83;8.77;;;-4.50;99.90;-5.10;98924.00;;;;4936541;28;88643;-64
2024/01/17 06:58:26;;;;;;;11.83;6.83;;;-4.40;99.90;-5.00;98932.00;;;;4937746;28;89656;-64
2024/01/17 07:00:53;;;;;;;11.60;7.37;;;-4.50;99.90;-5.00;98930.00;;;;4940190;28;110509;-64
2024/01/17 07:03:20;;;;;;;13.00;6.80;;;-4.50;99.90;-5.10;98910.00;;;;4934703;28;87789;-64
2024/01/17 07:05:45;;;;;;;8.90;6.17;;;-4.50;99.90;-5.10;98905.00;;;;4938496;28;89043;-64
2024/01/17 07:08:11;;;;;;;11.13;6.10;;;-4.50;99.90;-5.10;98891.00;;;;4938843;28;89109;-64
2024/01/17 07:10:37;;;;;;;12.00;6.27;;;-4.40;99.90;-5.10;98884.00;;;;4933908;28;101205;-63
2024/01/17 07:13:02;;;;;;;13.80;6.10;;;-4.60;99.90;-5.20;98879.00;;;;4939662;28;87751;-65
2024/01/17 07:15:29;;;;;;;11.93;6.73;;;-4.60;99.90;-5.20;98883.00;;;;4937827;28;110165;-63
2024/01/17 07:17:55;;;;;;;9.93;5.53;;;-4.70;99.90;-5.30;98871.00;;;;4938788;28;88601;-63
2024/01/17 07:20:21;;;;;;;11.00;6.23;;;-4.60;99.90;-5.30;98868.00;;;;4934708;28;111435;-64
2024/01/17 07:22:46;;;;;;;17.20;7.37;;;-4.70;99.90;-5.30;98853.00;;;;4938471;28;87073;-64
2024/01/17 07:25:13;;;;;;;11.27;7.87;;;-4.70;99.90;-5.30;98849.00;;;;4934459;28;116262;-64
2024/01/17 07:27:45;;;;;;;12.63;7.83;;;-4.60;99.90;-5.20;98863.00;;;;4937206;28;88716;-64
2024/01/17 07:30:12;;;;;;;15.37;8.33;;;-4.70;99.90;-5.20;98864.00;;;;4935369;28;88816;-64
2024/01/17 07:32:39;;;;;;;14.07;7.33;;;-4.60;99.90;-5.20;98855.00;;;;4939971;28;87964;-63
2024/01/17 07:35:06;;;;;;;8.33;6.20;;;-4.60;99.90;-5.10;98862.00;;;;4935951;28;88240;-64
2024/01/17 07:37:32;;;;;;;10.03;6.13;;;-5.30;99.90;-5.00;98850.00;;;;4933500;28;111245;-64
2024/01/17 07:39:59;;;;;;;13.07;6.90;;;-4.40;99.90;-4.90;98839.00;;;;4937017;28;88112;-64
2024/01/17 07:42:25;;;;;;;13.00;6.73;;;-4.30;99.90;-4.80;98841.00;;;;4936118;28;88371;-63
2024/01/17 07:44:51;;;;;;;10.87;6.20;;;-4.30;99.90;-4.70;98844.00;;;;4935654;28;88046;-63
2024/01/17 07:47:17;;;;;;;14.33;6.43;;;-4.30;99.90;-4.60;98846.00;;;;4935029;28;88294;-65
2024/01/17 07:49:45;;;;;;;9.03;5.80;;;-4.00;99.90;-4.50;98842.00;;;;4938387;28;87852;-63
2024/01/17 07:52:11;;;;;;;12.23;6.10;;;-4.00;99.90;-4.40;98840.00;;;;4936175;28;109045;-63
2024/01/17 07:54:36;;;;;;;11.80;6.53;;;-3.90;99.90;-4.30;98840.00;;;;4930976;28;119414;-63
2024/01/17 07:57:04;;;;;;;11.40;6.50;;;-3.80;99.90;-4.30;98835.00;;;;4936147;28;119510;-64
2024/01/17 07:59:29;;;;;;;10.53;7.30;;;-3.80;99.90;-4.20;98816.00;;;;4937784;28;88160;-63
2024/01/17 08:01:55;;;;;;;8.20;5.03;;;-3.70;99.90;-4.10;98812.00;;;;4935646;28;87751;-62
2024/01/17 08:04:21;;;;;;;9.93;5.90;;;-3.70;99.90;-4.00;98814.00;;;;4935737;28;109010;-64
2024/01/17 08:06:48;;;;;;;10.70;6.83;;;-3.50;99.90;-3.90;98797.00;;;;4934040;28;88439;-63
2024/01/17 08:09:26;;;;;;;18.87;7.73;;;-3.50;99.90;-3.70;98808.00;;;;4936651;28;110299;-63
2024/01/17 08:11:54;;;;;;;13.80;5.80;;;-3.20;99.90;-3.50;98791.00;;;;4939712;28;87052;-63
2024/01/17 08:14:20;;;;;;;8.73;4.40;;;-3.10;99.90;-3.30;98800.00;;;;4935711;28;107716;-62
2024/01/17 08:16:47;;;;;;;5.20;4.17;;;-2.90;99.90;-3.30;98786.00;;;;4932285;28;102971;-63
2024/01/17 08:19:14;;;;;;;7.00;4.23;;;-2.80;99.90;-3.20;98793.00;;;;4933330;28;88943;-64
2024/01/17 08:21:46;;;;;;;11.80;4.53;;;-2.10;99.90;-3.10;98782.00;;;;4935916;28;96270;-63
2024/01/17 08:24:13;;;;;;;10.57;5.33;;;-2.70;99.90;-3.00;98767.00;;;;4934761;28;88472;-62
2024/01/17 08:26:42;;;;;;;6.90;4.60;;;-2.50;99.90;-2.80;98770.00;;;;4934581;28;88658;-64
2024/01/17 08:29:08;;;;;;;9.57;4.00;;;-2.40;99.90;-2.50;98780.00;;;;4936669;28;100861;-62
2024/01/17 08:31:34;;;;;;;10.67;5.60;;;-2.10;99.90;-2.30;98772.00;;;;4934460;28;92742;-61
2024/01/17 08:34:00;;;;;;;9.80;4.97;;;-1.90;99.90;-2.10;98772.00;;;;4935486;28;119388;-63
2024/01/17 08:36:30;;;;;;;6.50;4.60;;;-1.70;99.90;-1.80;98759.00;;;;4938062;28;88708;-63
2024/01/17 08:38:57;;;;;;;7.60;5.40;;;-1.50;99.90;-1.60;98746.00;;;;4936871;28;88162;-63
2024/01/17 08:41:23;;;;;;;7.53;4.67;;;-1.30;99.90;-1.30;98751.00;;;;4934120;28;95947;-64
2024/01/17 08:43:48;;;;;;;13.67;7.10;;;-1.00;99.90;-1.20;98737.00;;;;4933761;28;119024;-63
2024/01/17 08:46:14;;;;;;;11.93;7.40;;;-0.70;99.90;-1.00;98735.00;;;;4937724;28;103637;-63
2024/01/17 08:48:41;;;;;;;7.50;5.40;;;-0.60;99.90;-0.90;98737.00;;;;4939414;28;110810;-64
2024/01/17 08:51:08;;;;;;;6.97;4.40;;;-0.50;99.90;-0.60;98728.00;;;;4931252;28;96380;-65
2024/01/17 08:53:36;;;;;;;7.20;3.93;;;-0.30;99.90;-0.50;98728.00;;;;4939656;28;88643;-63
2024/01/17 08:56:05;;;;;;;7.83;3.50;;;-0.20;99.90;-0.40;98712.00;;;;4937705;28;87890;-62
2024/01/17 08:58:33;;;;;;;5.13;3.50;;;0.00;99.90;-0.40;98710.00;;;;4936842;28;88023;-62
2024/01/17 09:00:59;;;;;;;7.17;4.00;;;0.00;99.90;-0.40;98702.00;;;;4936302;28;87326;-63
2024/01/17 09:03:25;;;;;;;4.07;3.03;;;-0.10;99.90;-0.40;98703.00;;;;4934204;28;112902;-64
2024/01/17 09:05:50;;;;;;;6.17;3.87;;;0.00;99.90;-0.40;98700.00;;;;4935010;28;117229;-65
2024/01/17 09:08:16;;;;;;;4.57;2.47;;;0.00;99.90;-0.40;98697.00;;;;4931692;28;109976;-64
2024/01/17 09:10:42;;;;;;;5.53;3.60;;;0.00;99.90;-0.30;98684.00;;;;4934613;28;88266;-65
2024/01/17 09:13:09;;;;;;;4.53;2.77;;;0.00;99.90;-0.20;98680.00;;;;4937338;28;88488;-64
2024/01/17 09:15:35;;;;;;;7.63;3.93;;;0.00;99.90;-0.10;98679.00;;;;4938047;28;88599;-65
2024/01/17 09:18:01;;;;;;;5.03;2.53;;;0.20;99.90;-0.10;98667.00;;;;4936036;28;110481;-65
2024/01/17 09:20:27;;;;;;;4.23;2.87;;;0.30;99.90;0.00;98658.00;;;;4936987;28;87833;-64
2024/01/17 09:22:53;;;;;;;3.73;2.37;;;0.30;99.90;0.10;98659.00;;;;4934589;28;88525;-64
2024/01/17 09:25:19;;;;;;;3.27;2.40;;;0.50;99.90;0.20;98649.00;;;;4933716;28;88121;-66
2024/01/17 09:27:44;;;;;;;4.80;3.20;;;0.60;99.90;0.30;98660.00;;;;4928532;28;93892;-65
2024/01/17 09:30:11;;;;;;;7.83;3.83;;;0.60;99.90;0.40;98652.00;;;;4934598;28;87935;-65
2024/01/17 09:32:37;;;;;;;7.67;4.83;;;0.80;99.90;0.50;98656.00;;;;4934189;28;89070;-64
2024/01/17 09:35:04;;;;;;;5.80;3.50;;;0.80;99.90;0.50;98641.00;;;;4935089;28;88547;-64
2024/01/17 09:37:30;;;;;;;6.50;3.97;;;0.90;99.90;0.70;98642.00;;;;4934970;28;88208;-64
2024/01/17 09:39:56;;;;;;;8.00;4.43;;;1.10;99.90;0.80;98636.00;;;;4940806;28;88321;-65
2024/01/17 09:42:22;;;;;;;5.53;3.10;;;1.10;99.90;0.90;98635.00;;;;4937536;28;118107;-66
2024/01/17 09:44:48;;;;;;;4.57;3.00;;;1.10;99.90;1.00;98639.00;;;;4938007;28;99415;-65
2024/01/17 09:47:15;;;;;;;3.70;2.60;;;1.30;99.90;1.10;98629.00;;;;4935140;28;90408;-65
2024/01/17 09:49:41;;;;;;;4.50;3.57;;;2.10;99.90;1.30;98608.00;;;;4921986;28;87279;-66
2024/01/17 09:52:07;;;;;;;4.47;3.10;;;1.50;99.90;1.40;98611.00;;;;4931649;28;116771;-64
2024/01/17 09:54:42;;;;;;;2.90;2.20;;;1.70;99.90;1.50;98609.00;;;;4934133;28;87733;-65
2024/01/17 09:57:17;;;;;;;3.67;3.10;;;1.60;99.90;1.50;98604.00;;;;4934771;28;88608;-65
2024/01/17 09:59:49;;;;;;;3.43;2.27;;;2.60;99.90;1.60;98597.00;;;;4937372;28;87894;-64
2024/01/17 10:02:16;;;;;;;5.90;3.43;;;1.90;99.90;1.70;98606.00;;;;4934800;28;88122;-66
2024/01/17 10:04:45;;;;;;;17.00;8.40;;;1.90;99.90;1.80;98590.00;;;;4934953;28;116963;-65
2024/01/17 10:07:12;;;;;;;6.43;4.17;;;2.00;99.90;2.00;98575.00;;;;4936681;28;88771;-65
2024/01/17 10:09:39;;;;;;;3.40;2.70;;;2.20;99.90;2.00;98577.00;;;;4931723;28;87779;-65
2024/01/17 10:12:05;;;;;;;4.70;2.63;;;3.20;99.90;2.10;98560.00;;;;4931279;28;88942;-65
2024/01/17 10:14:31;;;;;;;3.17;2.53;;;2.40;99.90;2.20;98553.00;;;;4935818;28;90537;-66
2024/01/17 10:16:57;;;;;;;6.03;3.10;;;2.40;99.70;2.20;98555.00;;;;4937593;28;110532;-67
2024/01/17 10:19:24;;;;;;;4.63;2.33;;;2.40;99.50;2.00;98543.00;;;;4934401;28;89715;-68
2024/01/17 10:21:50;;;;;;;5.83;3.67;;;2.90;98.80;1.90;98542.00;;;;4932529;28;89813;-68
2024/01/17 10:24:16;;;;;;;4.50;3.23;;;2.20;98.80;1.80;98537.00;;;;4933199;28;117626;-67
2024/01/17 10:26:43;;;;;;;2.57;2.37;;;3.00;98.80;1.60;98520.00;;;;4935805;28;109051;-67
2024/01/17 10:29:11;;;;;;;3.03;2.30;;;1.90;98.70;1.50;98528.00;;;;4938597;28;87754;-69
2024/01/17 10:31:40;;;;;;;3.60;2.43;;;1.70;98.20;1.30;98511.00;;;;4938713;28;88455;-67
2024/01/17 10:34:07;;;;;;;4.67;3.17;;;1.80;98.80;1.30;98511.00;;;;4937817;28;109877;-68
2024/01/17 10:36:35;;;;;;;3.07;2.60;;;1.50;99.30;1.30;98518.00;;;;4914919;28;110648;-67
2024/01/17 10:39:05;;;;;;;2.40;2.20;;;1.50;99.60;1.20;98500.00;;;;4951891;28;87093;-68
2024/01/17 10:41:32;;;;;;;3.63;2.60;;;1.50;99.80;1.20;98491.00;;;;4937372;28;88506;-69
2024/01/17 10:44:04;;;;;;;5.93;3.03;;;1.50;99.50;1.10;98482.00;;;;4937670;28;88286;-68
2024/01/17 10:46:30;;;;;;;4.43;3.33;;;1.50;99.70;1.10;98471.00;;;;4936702;28;89006;-68
2024/01/17 10:48:58;;;;;;;5.17;3.47;;;1.30;99.70;1.00;98474.00;;;;4941901;28;97045;-67